createdAt,value
2018-06-21T00:00:49.781Z,0.00
2018-06-21T00:01:49.807Z,0.00
2018-06-21T00:02:49.903Z,0.00
2018-06-21T00:03:49.855Z,0.00
2018-06-21T00:04:49.854Z,0.00
2018-06-21T00:05:49.858Z,0.00
2018-06-21T00:06:49.916Z,0.00
2018-06-21T00:07:49.903Z,0.00
2018-06-21T00:08:49.946Z,0.00
2018-06-21T00:09:49.941Z,0.00
2018-06-21T00:10:49.979Z,0.00
2018-06-21T00:11:50.123Z,0.00
2018-06-21T00:12:50.024Z,0.00
2018-06-21T00:13:49.999Z,0.00
2018-06-21T00:14:50.002Z,0.00
2018-06-21T00:15:50.023Z,0.00
2018-06-21T00:16:50.028Z,0.00
2018-06-21T00:17:50.092Z,0.00
2018-06-21T00:18:50.060Z,0.00
2018-06-21T00:19:50.124Z,0.00
2018-06-21T00:20:50.103Z,0.00
2018-06-21T00:21:50.111Z,0.00
2018-06-21T00:22:50.119Z,0.00
2018-06-21T00:23:50.128Z,0.00
2018-06-21T00:24:50.223Z,0.00
2018-06-21T00:25:50.178Z,0.00
2018-06-21T00:26:50.189Z,0.00
2018-06-21T00:27:50.201Z,0.00
2018-06-21T00:28:50.239Z,0.00
2018-06-21T00:29:50.311Z,0.00
2018-06-21T00:30:50.242Z,0.00
2018-06-21T00:31:50.328Z,0.00
2018-06-21T00:32:50.299Z,0.00
2018-06-21T00:33:50.302Z,0.00
2018-06-21T00:34:50.341Z,0.00
2018-06-21T00:35:50.348Z,0.00
2018-06-21T00:36:50.340Z,0.00
2018-06-21T00:37:50.367Z,0.00
2018-06-21T00:38:50.458Z,0.00
2018-06-21T00:39:50.388Z,0.00
2018-06-21T00:40:50.445Z,0.00
2018-06-21T00:41:50.424Z,0.00
2018-06-21T00:42:50.433Z,0.00
2018-06-21T00:43:50.437Z,0.00
2018-06-21T00:44:50.457Z,0.00
2018-06-21T00:45:50.491Z,0.00
2018-06-21T00:46:50.491Z,0.00
2018-06-21T00:47:50.544Z,0.00
2018-06-21T00:48:50.566Z,0.00
2018-06-21T00:49:50.551Z,0.00
2018-06-21T00:50:50.548Z,0.00
2018-06-21T00:51:50.565Z,0.00
2018-06-21T00:52:50.610Z,0.00
2018-06-21T00:53:50.633Z,0.00
2018-06-21T00:54:50.650Z,0.00
2018-06-21T00:55:50.616Z,0.00
2018-06-21T00:56:50.636Z,0.00
2018-06-21T00:57:50.661Z,0.00
2018-06-21T00:58:50.842Z,0.00
2018-06-21T00:59:50.677Z,0.00
2018-06-21T01:00:50.724Z,0.00
2018-06-21T01:01:50.755Z,0.00
2018-06-21T01:02:50.745Z,0.00
2018-06-21T01:03:50.892Z,0.00
2018-06-21T01:04:50.839Z,0.00
2018-06-21T01:05:50.794Z,0.00
2018-06-21T01:06:50.862Z,0.00
2018-06-21T01:07:50.804Z,0.00
2018-06-21T01:08:50.814Z,0.00
2018-06-21T01:09:50.861Z,0.00
2018-06-21T01:10:50.931Z,0.00
2018-06-21T01:11:50.911Z,0.00
2018-06-21T01:12:50.869Z,0.00
2018-06-21T01:13:50.923Z,0.00
2018-06-21T01:14:50.921Z,0.00
2018-06-21T01:15:50.926Z,0.00
2018-06-21T01:16:50.973Z,0.00
2018-06-21T01:17:50.936Z,0.00
2018-06-21T01:18:50.954Z,0.00
2018-06-21T01:19:50.968Z,0.00
2018-06-21T01:20:50.979Z,0.00
2018-06-21T01:21:51.020Z,0.00
2018-06-21T01:22:51.020Z,0.00
2018-06-21T01:23:51.032Z,0.00
2018-06-21T01:24:51.043Z,0.00
2018-06-21T01:25:51.063Z,0.00
2018-06-21T01:26:51.200Z,0.00
2018-06-21T01:27:51.086Z,0.00
2018-06-21T01:28:51.125Z,0.00
2018-06-21T01:29:51.163Z,0.00
2018-06-21T01:30:51.132Z,0.00
2018-06-21T01:31:51.184Z,0.00
2018-06-21T01:32:51.158Z,0.00
2018-06-21T01:33:51.181Z,0.00
2018-06-21T01:34:51.203Z,0.00
2018-06-21T01:35:51.208Z,0.00
2018-06-21T01:36:51.270Z,0.00
2018-06-21T01:37:51.244Z,0.00
2018-06-21T01:38:51.253Z,0.00
2018-06-21T01:39:51.270Z,0.00
2018-06-21T01:40:51.297Z,0.00
2018-06-21T01:41:51.322Z,0.00
2018-06-21T01:42:51.323Z,0.00
2018-06-21T01:43:51.325Z,0.00
2018-06-21T01:44:51.340Z,0.00
2018-06-21T01:45:51.356Z,0.00
2018-06-21T01:46:51.390Z,0.00
2018-06-21T01:47:51.414Z,0.00
2018-06-21T01:48:51.401Z,0.00
2018-06-21T01:49:51.407Z,0.00
2018-06-21T01:50:51.450Z,0.00
2018-06-21T01:51:51.439Z,0.00
2018-06-21T01:52:51.492Z,0.00
2018-06-21T01:53:51.460Z,0.00
2018-06-21T01:54:51.506Z,0.00
2018-06-21T01:55:51.519Z,0.00
2018-06-21T01:56:51.511Z,0.00
2018-06-21T01:57:51.537Z,0.00
2018-06-21T01:58:51.583Z,0.00
2018-06-21T01:59:51.624Z,0.00
2018-06-21T02:00:51.586Z,4.00
2018-06-21T02:01:51.656Z,4.00
2018-06-21T02:02:51.604Z,0.00
2018-06-21T02:03:51.614Z,0.00
2018-06-21T02:04:51.687Z,0.00
2018-06-21T02:05:51.650Z,4.00
2018-06-21T02:06:51.693Z,4.00
2018-06-21T02:07:51.799Z,0.00
2018-06-21T02:08:51.703Z,4.00
2018-06-21T02:09:51.753Z,4.00
2018-06-21T02:10:51.720Z,4.00
2018-06-21T02:11:51.742Z,4.00
2018-06-21T02:12:51.745Z,4.00
2018-06-21T02:13:51.776Z,4.00
2018-06-21T02:14:51.809Z,4.00
2018-06-21T02:15:51.797Z,8.00
2018-06-21T02:16:51.809Z,8.00
2018-06-21T02:17:51.832Z,8.00
2018-06-21T02:18:51.861Z,12.00
2018-06-21T02:19:51.858Z,8.00
2018-06-21T02:20:51.898Z,12.00
2018-06-21T02:21:51.879Z,12.00
2018-06-21T02:22:51.898Z,16.00
2018-06-21T02:23:51.948Z,16.00
2018-06-21T02:24:51.941Z,20.00
2018-06-21T02:25:51.950Z,20.00
2018-06-21T02:26:52.091Z,20.00
2018-06-21T02:27:51.981Z,24.00
2018-06-21T02:28:52.017Z,28.00
2018-06-21T02:29:52.028Z,28.00
2018-06-21T02:30:52.014Z,32.00
2018-06-21T02:31:52.046Z,32.00
2018-06-21T02:32:52.055Z,36.00
2018-06-21T02:33:52.096Z,40.00
2018-06-21T02:34:52.104Z,44.00
2018-06-21T02:35:52.097Z,48.00
2018-06-21T02:36:52.110Z,48.00
2018-06-21T02:37:52.129Z,56.00
2018-06-21T02:38:52.202Z,60.00
2018-06-21T02:39:52.162Z,64.00
2018-06-21T02:40:52.172Z,72.00
2018-06-21T02:41:52.218Z,76.00
2018-06-21T02:42:52.205Z,80.00
2018-06-21T02:43:52.236Z,84.00
2018-06-21T02:44:52.224Z,92.00
2018-06-21T02:45:52.285Z,96.00
2018-06-21T02:46:52.259Z,104.00
2018-06-21T02:47:52.300Z,108.00
2018-06-21T02:48:52.292Z,120.00
2018-06-21T02:49:52.328Z,124.00
2018-06-21T02:50:52.330Z,132.00
2018-06-21T02:51:52.335Z,140.00
2018-06-21T02:52:52.366Z,148.00
2018-06-21T02:53:52.427Z,160.00
2018-06-21T02:54:52.380Z,172.00
2018-06-21T02:55:52.383Z,180.00
2018-06-21T02:56:52.439Z,192.00
2018-06-21T02:57:52.414Z,200.00
2018-06-21T02:58:52.495Z,212.00
2018-06-21T02:59:52.480Z,224.00
2018-06-21T03:00:52.452Z,236.00
2018-06-21T03:01:52.471Z,248.00
2018-06-21T03:02:52.500Z,260.00
2018-06-21T03:03:52.600Z,276.00
2018-06-21T03:04:52.551Z,292.00
2018-06-21T03:05:52.544Z,308.00
2018-06-21T03:06:52.548Z,324.00
2018-06-21T03:07:52.573Z,340.00
2018-06-21T03:08:52.606Z,352.00
2018-06-21T03:09:52.618Z,368.00
2018-06-21T03:10:52.624Z,388.00
2018-06-21T03:11:52.654Z,404.00
2018-06-21T03:12:52.675Z,428.00
2018-06-21T03:13:52.656Z,464.00
2018-06-21T03:14:52.765Z,496.00
2018-06-21T03:15:52.672Z,536.00
2018-06-21T03:16:52.701Z,568.00
2018-06-21T03:17:52.818Z,592.00
2018-06-21T03:18:52.725Z,624.00
2018-06-21T03:19:52.791Z,644.00
2018-06-21T03:20:52.796Z,664.00
2018-06-21T03:21:52.802Z,688.00
2018-06-21T03:22:52.790Z,716.00
2018-06-21T03:23:52.809Z,756.00
2018-06-21T03:24:52.808Z,788.00
2018-06-21T03:25:52.877Z,816.00
2018-06-21T03:26:52.849Z,844.00
2018-06-21T03:27:52.877Z,896.00
2018-06-21T03:28:52.878Z,936.00
2018-06-21T03:29:52.892Z,988.00
2018-06-21T03:30:52.938Z,1040.00
2018-06-21T03:31:52.974Z,1104.00
2018-06-21T03:32:52.947Z,1140.00
2018-06-21T03:33:52.948Z,1168.00
2018-06-21T03:34:52.979Z,1228.00
2018-06-21T03:35:52.977Z,1284.00
2018-06-21T03:36:53.008Z,1336.00
2018-06-21T03:37:53.028Z,1388.00
2018-06-21T03:38:53.016Z,1444.00
2018-06-21T03:39:53.050Z,1480.00
2018-06-21T03:40:53.073Z,1520.00
2018-06-21T03:41:53.113Z,1560.00
2018-06-21T03:42:53.109Z,1580.00
2018-06-21T03:43:53.103Z,1616.00
2018-06-21T03:44:53.127Z,1652.00
2018-06-21T03:45:53.153Z,1696.00
2018-06-21T03:46:53.142Z,1744.00
2018-06-21T03:47:53.180Z,1788.00
2018-06-21T03:48:53.219Z,1828.00
2018-06-21T03:49:53.191Z,1856.00
2018-06-21T03:50:53.196Z,1904.00
2018-06-21T03:51:53.224Z,1968.00
2018-06-21T03:52:53.228Z,2036.00
2018-06-21T03:53:53.298Z,2104.00
2018-06-21T03:54:53.273Z,2204.00
2018-06-21T03:55:53.303Z,2256.00
2018-06-21T03:56:53.288Z,2304.00
2018-06-21T03:57:53.316Z,2412.00
2018-06-21T03:58:53.384Z,2544.00
2018-06-21T03:59:53.364Z,2712.00
2018-06-21T04:00:53.369Z,2904.00
2018-06-21T04:01:53.376Z,3056.00
2018-06-21T04:02:53.431Z,3240.00
2018-06-21T04:03:53.436Z,3356.00
2018-06-21T04:04:53.416Z,3376.00
2018-06-21T04:05:53.442Z,3372.00
2018-06-21T04:06:53.478Z,3408.00
2018-06-21T04:07:53.488Z,3408.00
2018-06-21T04:08:53.488Z,3480.00
2018-06-21T04:09:53.497Z,3576.00
2018-06-21T04:10:53.609Z,3748.00
2018-06-21T04:11:53.827Z,3880.00
2018-06-21T04:12:53.530Z,4176.00
2018-06-21T04:13:53.574Z,4416.00
2018-06-21T04:14:53.574Z,4728.00
2018-06-21T04:15:53.592Z,5016.00
2018-06-21T04:16:53.611Z,5176.00
2018-06-21T04:17:53.662Z,5332.00
2018-06-21T04:18:53.640Z,5528.00
2018-06-21T04:19:53.640Z,5760.00
2018-06-21T04:20:53.687Z,5892.00
2018-06-21T04:21:53.675Z,6004.00
2018-06-21T04:22:53.725Z,6160.00
2018-06-21T04:23:53.744Z,6352.00
2018-06-21T04:24:53.737Z,4356.00
2018-06-21T04:25:53.778Z,6652.00
2018-06-21T04:26:53.770Z,5036.00
2018-06-21T04:27:53.790Z,5764.00
2018-06-21T04:28:53.894Z,6656.00
2018-06-21T04:29:53.857Z,6844.00
2018-06-21T04:30:53.866Z,6880.00
2018-06-21T04:31:53.877Z,6904.00
2018-06-21T04:32:53.859Z,6844.00
2018-06-21T04:33:53.875Z,6900.00
2018-06-21T04:34:53.891Z,6956.00
2018-06-21T04:35:53.906Z,7068.00
2018-06-21T04:36:54.007Z,6980.00
2018-06-21T04:37:54.037Z,6988.00
2018-06-21T04:38:53.956Z,6872.00
2018-06-21T04:39:54.029Z,6884.00
2018-06-21T04:40:53.989Z,6232.00
2018-06-21T04:41:54.020Z,6844.00
2018-06-21T04:42:54.025Z,6792.00
2018-06-21T04:43:54.057Z,6824.00
2018-06-21T04:44:54.140Z,6868.00
2018-06-21T04:45:54.139Z,6756.00
2018-06-21T04:46:54.096Z,6756.00
2018-06-21T04:47:54.093Z,6880.00
2018-06-21T04:48:54.125Z,6840.00
2018-06-21T04:49:54.169Z,6936.00
2018-06-21T04:50:54.202Z,7104.00
2018-06-21T04:51:54.169Z,7288.00
2018-06-21T04:52:54.195Z,7300.00
2018-06-21T04:53:54.235Z,7424.00
2018-06-21T04:54:54.223Z,7300.00
2018-06-21T04:55:54.280Z,7120.00
2018-06-21T04:56:54.261Z,7144.00
2018-06-21T04:57:54.304Z,7272.00
2018-06-21T04:58:54.301Z,7508.00
2018-06-21T04:59:54.317Z,7504.00
2018-06-21T05:00:54.359Z,7272.00
2018-06-21T05:01:54.374Z,6972.00
2018-06-21T05:02:54.384Z,6724.00
2018-06-21T05:03:54.387Z,6612.00
2018-06-21T05:04:54.389Z,6720.00
2018-06-21T05:05:54.416Z,6792.00
2018-06-21T05:06:54.471Z,6916.00
2018-06-21T05:07:54.464Z,6988.00
2018-06-21T05:08:54.475Z,7300.00
2018-06-21T05:09:54.564Z,7640.00
2018-06-21T05:10:54.528Z,8000.00
2018-06-21T05:11:54.527Z,8440.00
2018-06-21T05:12:54.536Z,8700.00
2018-06-21T05:13:54.571Z,8756.00
2018-06-21T05:14:54.606Z,9228.00
2018-06-21T05:15:54.615Z,9936.00
2018-06-21T05:16:54.636Z,10124.00
2018-06-21T05:17:54.658Z,10036.00
2018-06-21T05:18:54.653Z,10024.00
2018-06-21T05:19:54.660Z,10040.00
2018-06-21T05:20:54.696Z,10180.00
2018-06-21T05:21:54.728Z,10300.00
2018-06-21T05:22:54.740Z,10504.00
2018-06-21T05:23:54.730Z,10616.00
2018-06-21T05:24:54.800Z,10824.00
2018-06-21T05:25:54.799Z,11088.00
2018-06-21T05:26:54.798Z,11360.00
2018-06-21T05:27:54.807Z,11568.00
2018-06-21T05:28:54.816Z,11452.00
2018-06-21T05:29:54.879Z,11328.00
2018-06-21T05:30:54.895Z,11388.00
2018-06-21T05:31:54.880Z,11364.00
2018-06-21T05:32:54.895Z,11312.00
2018-06-21T05:33:54.911Z,11336.00
2018-06-21T05:34:54.949Z,11192.00
2018-06-21T05:35:55.011Z,10688.00
2018-06-21T05:36:54.988Z,9856.00
2018-06-21T05:37:55.006Z,7812.00
2018-06-21T05:38:55.036Z,8164.00
2018-06-21T05:39:55.033Z,5832.00
2018-06-21T05:40:55.107Z,3044.00
2018-06-21T05:41:55.079Z,2820.00
2018-06-21T05:42:55.133Z,2716.00
2018-06-21T05:43:55.122Z,2940.00
2018-06-21T05:44:55.136Z,7664.00
2018-06-21T05:45:55.243Z,7376.00
2018-06-21T05:46:55.175Z,6632.00
2018-06-21T05:47:55.295Z,6308.00
2018-06-21T05:48:55.218Z,5636.00
2018-06-21T05:49:55.238Z,4812.00
2018-06-21T05:50:55.270Z,3964.00
2018-06-21T05:51:55.278Z,3260.00
2018-06-21T05:52:55.339Z,3068.00
2018-06-21T05:53:55.372Z,2952.00
2018-06-21T05:54:55.339Z,2932.00
2018-06-21T05:55:55.400Z,2908.00
2018-06-21T05:56:55.385Z,2880.00
2018-06-21T05:57:55.422Z,2804.00
2018-06-21T05:58:55.452Z,2796.00
2018-06-21T05:59:55.474Z,2772.00
2018-06-21T06:00:55.503Z,2844.00
2018-06-21T06:01:55.590Z,2876.00
2018-06-21T06:02:55.512Z,2896.00
2018-06-21T06:03:55.514Z,2836.00
2018-06-21T06:04:55.549Z,2832.00
2018-06-21T06:05:55.567Z,2964.00
2018-06-21T06:06:55.629Z,3024.00
2018-06-21T06:07:55.609Z,2960.00
2018-06-21T06:08:55.610Z,2932.00
2018-06-21T06:09:55.677Z,2260.00
2018-06-21T06:10:55.659Z,1956.00
2018-06-21T06:11:55.718Z,1760.00
2018-06-21T06:12:55.718Z,1756.00
2018-06-21T06:13:55.722Z,1808.00
2018-06-21T06:14:55.766Z,1772.00
2018-06-21T06:15:55.763Z,1668.00
2018-06-21T06:16:55.773Z,1648.00
2018-06-21T06:17:55.878Z,1776.00
2018-06-21T06:18:55.813Z,1912.00
2018-06-21T06:19:55.852Z,3108.00
2018-06-21T06:20:55.860Z,3164.00
2018-06-21T06:21:55.873Z,3116.00
2018-06-21T06:22:55.947Z,2176.00
2018-06-21T06:23:55.940Z,2048.00
2018-06-21T06:24:55.951Z,1992.00
2018-06-21T06:25:55.937Z,2152.00
2018-06-21T06:26:55.956Z,2192.00
2018-06-21T06:27:56.006Z,2072.00
2018-06-21T06:28:56.018Z,1912.00
2018-06-21T06:29:56.010Z,2268.00
2018-06-21T06:30:56.046Z,1612.00
2018-06-21T06:31:56.047Z,1612.00
2018-06-21T06:32:56.090Z,1544.00
2018-06-21T06:33:56.079Z,1444.00
2018-06-21T06:34:56.128Z,1368.00
2018-06-21T06:35:56.121Z,1308.00
2018-06-21T06:36:56.138Z,1268.00
2018-06-21T06:37:56.169Z,1300.00
2018-06-21T06:38:56.199Z,1420.00
2018-06-21T06:39:56.193Z,1420.00
2018-06-21T06:40:56.212Z,1380.00
2018-06-21T06:41:56.245Z,1404.00
2018-06-21T06:42:56.290Z,1344.00
2018-06-21T06:43:56.255Z,1240.00
2018-06-21T06:44:56.274Z,1200.00
2018-06-21T06:45:56.347Z,1228.00
2018-06-21T06:46:56.300Z,1156.00
2018-06-21T06:47:56.327Z,1164.00
2018-06-21T06:48:56.378Z,1300.00
2018-06-21T06:49:56.352Z,1452.00
2018-06-21T06:50:56.378Z,1532.00
2018-06-21T06:51:56.383Z,1680.00
2018-06-21T06:52:56.408Z,1732.00
2018-06-21T06:53:56.465Z,2000.00
2018-06-21T06:54:56.439Z,2016.00
2018-06-21T06:55:56.461Z,1908.00
2018-06-21T06:56:56.540Z,1780.00
2018-06-21T06:57:56.520Z,1768.00
2018-06-21T06:58:56.527Z,1816.00
2018-06-21T06:59:56.534Z,1896.00
2018-06-21T07:00:56.551Z,2012.00
2018-06-21T07:01:56.549Z,2076.00
2018-06-21T07:02:56.605Z,2008.00
2018-06-21T07:03:56.599Z,1912.00
2018-06-21T07:04:56.620Z,1992.00
2018-06-21T07:05:56.662Z,2172.00
2018-06-21T07:06:56.637Z,2020.00
2018-06-21T07:07:56.678Z,1992.00
2018-06-21T07:08:56.684Z,1944.00
2018-06-21T07:09:56.686Z,1808.00
2018-06-21T07:10:56.702Z,1676.00
2018-06-21T07:11:56.745Z,1576.00
2018-06-21T07:12:56.783Z,1688.00
2018-06-21T07:13:56.757Z,1756.00
2018-06-21T07:14:56.801Z,1896.00
2018-06-21T07:15:56.799Z,2468.00
2018-06-21T07:16:56.833Z,2748.00
2018-06-21T07:17:56.865Z,2752.00
2018-06-21T07:18:56.873Z,2520.00
2018-06-21T07:19:56.866Z,2388.00
2018-06-21T07:20:56.920Z,2312.00
2018-06-21T07:21:56.895Z,2308.00
2018-06-21T07:22:56.918Z,2384.00
2018-06-21T07:23:56.941Z,2384.00
2018-06-21T07:24:56.953Z,2428.00
2018-06-21T07:25:57.015Z,2452.00
2018-06-21T07:26:56.984Z,2464.00
2018-06-21T07:27:57.017Z,2424.00
2018-06-21T07:28:57.011Z,2404.00
2018-06-21T07:29:57.034Z,2676.00
2018-06-21T07:30:57.073Z,2804.00
2018-06-21T07:31:57.112Z,2964.00
2018-06-21T07:32:57.093Z,3056.00
2018-06-21T07:33:57.105Z,2648.00
2018-06-21T07:34:57.112Z,2660.00
2018-06-21T07:35:57.143Z,2540.00
2018-06-21T07:36:57.174Z,2460.00
2018-06-21T07:37:57.177Z,2420.00
2018-06-21T07:38:57.277Z,2468.00
2018-06-21T07:39:57.213Z,2720.00
2018-06-21T07:40:57.230Z,2552.00
2018-06-21T07:41:57.238Z,2660.00
2018-06-21T07:42:57.287Z,2624.00
2018-06-21T07:43:57.528Z,2664.00
2018-06-21T07:44:57.294Z,2812.00
2018-06-21T07:45:57.352Z,2940.00
2018-06-21T07:46:57.395Z,2864.00
2018-06-21T07:47:57.336Z,2712.00
2018-06-21T07:48:57.360Z,2596.00
2018-06-21T07:49:57.379Z,2680.00
2018-06-21T07:50:57.427Z,2724.00
2018-06-21T07:51:57.399Z,2820.00
2018-06-21T07:52:57.423Z,2928.00
2018-06-21T07:53:57.444Z,2904.00
2018-06-21T07:54:57.465Z,2912.00
2018-06-21T07:55:57.523Z,2996.00
2018-06-21T07:56:57.484Z,2916.00
2018-06-21T07:57:57.571Z,2956.00
2018-06-21T07:58:57.529Z,3064.00
2018-06-21T07:59:57.545Z,3160.00
2018-06-21T08:00:57.604Z,3200.00
2018-06-21T08:01:57.573Z,3184.00
2018-06-21T08:02:57.602Z,3156.00
2018-06-21T08:03:57.664Z,3104.00
2018-06-21T08:04:57.624Z,2672.00
2018-06-21T08:05:57.655Z,2460.00
2018-06-21T08:06:57.711Z,2372.00
2018-06-21T08:07:57.680Z,2196.00
2018-06-21T08:08:57.792Z,2092.00
2018-06-21T08:09:57.763Z,2008.00
2018-06-21T08:10:57.728Z,1812.00
2018-06-21T08:11:57.888Z,1844.00
2018-06-21T08:12:57.814Z,1908.00
2018-06-21T08:13:57.840Z,1812.00
2018-06-21T08:14:57.819Z,1796.00
2018-06-21T08:15:57.884Z,1784.00
2018-06-21T08:16:57.928Z,1744.00
2018-06-21T08:17:57.860Z,1884.00
2018-06-21T08:18:57.941Z,2092.00
2018-06-21T08:19:57.948Z,2244.00
2018-06-21T08:20:57.966Z,2372.00
2018-06-21T08:21:57.931Z,2452.00
2018-06-21T08:22:57.976Z,2504.00
2018-06-21T08:23:57.968Z,2608.00
2018-06-21T08:24:58.013Z,2404.00
2018-06-21T08:25:58.072Z,2240.00
2018-06-21T08:26:58.020Z,2208.00
2018-06-21T08:27:58.052Z,2096.00
2018-06-21T08:28:58.054Z,2116.00
2018-06-21T08:29:58.062Z,2116.00
2018-06-21T08:30:58.079Z,2164.00
2018-06-21T08:31:58.106Z,2224.00
2018-06-21T08:32:58.183Z,2208.00
2018-06-21T08:33:58.351Z,2244.00
2018-06-21T08:34:58.198Z,2260.00
2018-06-21T08:35:58.176Z,2112.00
2018-06-21T08:36:58.180Z,2164.00
2018-06-21T08:37:58.223Z,2304.00
2018-06-21T08:38:58.301Z,2372.00
2018-06-21T08:39:58.242Z,2396.00
2018-06-21T08:40:58.257Z,2444.00
2018-06-21T08:41:58.297Z,2452.00
2018-06-21T08:42:58.314Z,2384.00
2018-06-21T08:43:58.314Z,2304.00
2018-06-21T08:44:58.335Z,2196.00
2018-06-21T08:45:58.384Z,2212.00
2018-06-21T08:46:58.411Z,2296.00
2018-06-21T08:47:58.409Z,2436.00
2018-06-21T08:48:58.390Z,2432.00
2018-06-21T08:49:58.424Z,2304.00
2018-06-21T08:50:58.437Z,2176.00
2018-06-21T08:51:58.509Z,2072.00
2018-06-21T08:52:58.503Z,2040.00
2018-06-21T08:53:58.492Z,1984.00
2018-06-21T08:54:58.496Z,1932.00
2018-06-21T08:55:58.546Z,1916.00
2018-06-21T08:56:58.543Z,1928.00
2018-06-21T08:57:58.547Z,1964.00
2018-06-21T08:58:58.563Z,1980.00
2018-06-21T08:59:58.597Z,2040.00
2018-06-21T09:00:58.674Z,2044.00
2018-06-21T09:01:58.637Z,1956.00
2018-06-21T09:02:58.633Z,2124.00
2018-06-21T09:03:58.659Z,2168.00
2018-06-21T09:04:58.676Z,2048.00
2018-06-21T09:05:58.721Z,2028.00
2018-06-21T09:06:58.762Z,2004.00
2018-06-21T09:07:58.735Z,1900.00
2018-06-21T09:08:58.753Z,1920.00
2018-06-21T09:09:58.792Z,1948.00
2018-06-21T09:10:58.774Z,1972.00
2018-06-21T09:11:58.902Z,2092.00
2018-06-21T09:12:58.819Z,2196.00
2018-06-21T09:13:58.822Z,2184.00
2018-06-21T09:14:58.911Z,2216.00
2018-06-21T09:15:58.859Z,2052.00
2018-06-21T09:16:58.881Z,2032.00
2018-06-21T09:17:58.977Z,2020.00
2018-06-21T09:18:58.922Z,2088.00
2018-06-21T09:19:58.961Z,2104.00
2018-06-21T09:20:58.971Z,2156.00
2018-06-21T09:21:58.965Z,2172.00
2018-06-21T09:22:58.986Z,2112.00
2018-06-21T09:23:59.078Z,2016.00
2018-06-21T09:24:59.028Z,2008.00
2018-06-21T09:25:59.063Z,2032.00
2018-06-21T09:26:59.094Z,2088.00
2018-06-21T09:27:59.073Z,2156.00
2018-06-21T09:28:59.110Z,2152.00
2018-06-21T09:29:59.105Z,2172.00
2018-06-21T09:30:59.140Z,2328.00
2018-06-21T09:31:59.177Z,2396.00
2018-06-21T09:32:59.153Z,2452.00
2018-06-21T09:33:59.222Z,2256.00
2018-06-21T09:34:59.213Z,2328.00
2018-06-21T09:35:59.215Z,2420.00
2018-06-21T09:36:59.237Z,2408.00
2018-06-21T09:37:59.275Z,2472.00
2018-06-21T09:38:59.316Z,2524.00
2018-06-21T09:39:59.296Z,2620.00
2018-06-21T09:40:59.361Z,2656.00
2018-06-21T09:41:59.326Z,2888.00
2018-06-21T09:42:59.348Z,2936.00
2018-06-21T09:44:03.824Z,2720.00
2018-06-21T09:44:59.368Z,2304.00
2018-06-21T09:45:59.400Z,2828.00
2018-06-21T09:46:59.486Z,3120.00
2018-06-21T09:47:59.491Z,2588.00
2018-06-21T09:48:59.447Z,2536.00
2018-06-21T09:49:59.462Z,2556.00
2018-06-21T09:50:59.479Z,2500.00
2018-06-21T09:51:59.523Z,2560.00
2018-06-21T09:52:59.542Z,2532.00
2018-06-21T09:53:59.580Z,2620.00
2018-06-21T09:54:59.547Z,2768.00
2018-06-21T09:55:59.615Z,2644.00
2018-06-21T09:56:59.602Z,2652.00
2018-06-21T09:57:59.649Z,2676.00
2018-06-21T09:59:00.574Z,3284.00
2018-06-21T09:59:59.629Z,3256.00
2018-06-21T10:00:59.693Z,3460.00
2018-06-21T10:01:59.683Z,3584.00
2018-06-21T10:02:59.692Z,3844.00
2018-06-21T10:03:59.706Z,3996.00
2018-06-21T10:04:59.741Z,4076.00
2018-06-21T10:05:59.768Z,4132.00
2018-06-21T10:06:59.797Z,4192.00
2018-06-21T10:07:59.778Z,4220.00
2018-06-21T10:08:59.823Z,4196.00
2018-06-21T10:09:59.822Z,4156.00
2018-06-21T10:11:00.256Z,4040.00
2018-06-21T10:11:59.972Z,3928.00
2018-06-21T10:12:59.873Z,3832.00
2018-06-21T10:13:59.878Z,3864.00
2018-06-21T10:14:59.932Z,3876.00
2018-06-21T10:15:59.914Z,3928.00
2018-06-21T10:17:00.005Z,4004.00
2018-06-21T10:17:59.958Z,4060.00
2018-06-21T10:18:59.972Z,4128.00
2018-06-21T10:19:59.989Z,4088.00
2018-06-21T10:21:00.032Z,4012.00
2018-06-21T10:22:00.071Z,4028.00
2018-06-21T10:23:00.069Z,3996.00
2018-06-21T10:24:00.076Z,3844.00
2018-06-21T10:25:00.070Z,3712.00
2018-06-21T10:26:00.140Z,3624.00
2018-06-21T10:27:00.155Z,3560.00
2018-06-21T10:28:00.171Z,3584.00
2018-06-21T10:29:00.157Z,3528.00
2018-06-21T10:30:00.197Z,3548.00
2018-06-21T10:31:00.214Z,3332.00
2018-06-21T10:32:00.230Z,3200.00
2018-06-21T10:33:00.258Z,3316.00
2018-06-21T10:34:00.252Z,3196.00
2018-06-21T10:35:00.301Z,3196.00
2018-06-21T10:36:00.295Z,2980.00
2018-06-21T10:37:00.334Z,2676.00
2018-06-21T10:38:00.343Z,2364.00
2018-06-21T10:39:00.369Z,1976.00
2018-06-21T10:40:00.409Z,1388.00
2018-06-21T10:41:00.364Z,952.00
2018-06-21T10:42:00.424Z,784.00
2018-06-21T10:43:00.403Z,504.00
2018-06-21T10:44:00.415Z,356.00
2018-06-21T10:45:00.493Z,312.00
2018-06-21T10:46:00.463Z,352.00
2018-06-21T10:47:00.468Z,472.00
2018-06-21T10:48:00.490Z,400.00
2018-06-21T10:49:00.519Z,492.00
2018-06-21T10:50:00.551Z,684.00
2018-06-21T10:51:00.575Z,748.00
2018-06-21T10:52:00.562Z,832.00
2018-06-21T10:53:00.593Z,888.00
2018-06-21T10:54:00.589Z,780.00
2018-06-21T10:55:00.638Z,724.00
2018-06-21T10:56:00.634Z,664.00
2018-06-21T10:57:00.687Z,672.00
2018-06-21T10:58:00.785Z,872.00
2018-06-21T10:59:00.689Z,1080.00
2018-06-21T11:00:00.733Z,1048.00
2018-06-21T11:01:00.722Z,828.00
2018-06-21T11:02:00.735Z,936.00
2018-06-21T11:03:00.747Z,836.00
2018-06-21T11:04:00.755Z,804.00
2018-06-21T11:05:00.828Z,800.00
2018-06-21T11:06:00.788Z,756.00
2018-06-21T11:07:00.832Z,712.00
2018-06-21T11:08:00.824Z,700.00
2018-06-21T11:09:00.835Z,720.00
2018-06-21T11:10:00.861Z,788.00
2018-06-21T11:11:00.897Z,880.00
2018-06-21T11:12:00.863Z,1008.00
2018-06-21T11:13:00.896Z,1244.00
2018-06-21T11:14:00.893Z,1472.00
2018-06-21T11:15:01.067Z,1760.00
2018-06-21T11:16:00.951Z,2272.00
2018-06-21T11:17:01.020Z,2472.00
2018-06-21T11:18:00.966Z,2608.00
2018-06-21T11:19:00.965Z,2476.00
2018-06-21T11:20:00.994Z,2580.00
2018-06-21T11:21:01.017Z,2076.00
2018-06-21T11:22:01.045Z,1836.00
2018-06-21T11:23:01.056Z,1608.00
2018-06-21T11:24:01.055Z,1448.00
2018-06-21T11:25:01.078Z,1368.00
2018-06-21T11:26:01.131Z,1300.00
2018-06-21T11:27:01.093Z,1248.00
2018-06-21T11:28:01.183Z,1388.00
2018-06-21T11:29:01.119Z,1364.00
2018-06-21T11:30:01.201Z,1428.00
2018-06-21T11:31:01.165Z,1520.00
2018-06-21T11:32:01.150Z,1536.00
2018-06-21T11:33:01.170Z,1392.00
2018-06-21T11:34:01.185Z,1320.00
2018-06-21T11:35:01.199Z,1352.00
2018-06-21T11:36:01.236Z,1192.00
2018-06-21T11:37:01.271Z,1028.00
2018-06-21T11:38:01.222Z,1052.00
2018-06-21T11:39:01.264Z,1216.00
2018-06-21T11:40:01.281Z,1472.00
2018-06-21T11:41:01.338Z,1676.00
2018-06-21T11:42:01.310Z,1936.00
2018-06-21T11:43:01.352Z,2088.00
2018-06-21T11:44:01.310Z,2504.00
2018-06-21T11:45:01.342Z,2832.00
2018-06-21T11:46:01.385Z,3132.00
2018-06-21T11:47:01.347Z,3012.00
2018-06-21T11:48:01.467Z,2972.00
2018-06-21T11:49:01.403Z,3148.00
2018-06-21T11:50:01.399Z,3048.00
2018-06-21T11:51:01.414Z,2884.00
2018-06-21T11:52:01.460Z,2936.00
2018-06-21T11:53:01.462Z,2828.00
2018-06-21T11:54:01.536Z,2904.00
2018-06-21T11:55:01.464Z,2844.00
2018-06-21T11:56:01.528Z,2800.00
2018-06-21T11:57:01.522Z,2664.00
2018-06-21T11:58:01.514Z,2584.00
2018-06-21T11:59:01.518Z,2632.00
2018-06-21T12:00:01.601Z,2764.00
2018-06-21T12:01:01.538Z,2660.00
2018-06-21T12:02:01.557Z,2480.00
2018-06-21T12:03:01.598Z,1980.00
2018-06-21T12:04:01.577Z,1356.00
2018-06-21T12:05:01.647Z,1044.00
2018-06-21T12:06:01.608Z,976.00
2018-06-21T12:07:01.634Z,704.00
2018-06-21T12:08:01.679Z,716.00
2018-06-21T12:09:01.689Z,596.00
2018-06-21T12:10:01.716Z,500.00
2018-06-21T12:11:01.692Z,456.00
2018-06-21T12:12:01.699Z,456.00
2018-06-21T12:13:01.745Z,476.00
2018-06-21T12:14:01.752Z,428.00
2018-06-21T12:15:01.723Z,360.00
2018-06-21T12:16:01.776Z,364.00
2018-06-21T12:17:01.759Z,404.00
2018-06-21T12:18:01.818Z,388.00
2018-06-21T12:19:01.783Z,372.00
2018-06-21T12:20:01.825Z,404.00
2018-06-21T12:21:01.919Z,428.00
2018-06-21T12:22:01.816Z,412.00
2018-06-21T12:23:01.931Z,456.00